createdAt,value
2023-02-21T00:01:21.464Z,10.45
2023-02-21T00:04:07.974Z,10.45
2023-02-21T00:06:54.056Z,10.43
2023-02-21T00:09:40.496Z,10.41
2023-02-21T00:12:26.545Z,10.39
2023-02-21T00:15:13.047Z,10.35
2023-02-21T00:17:59.475Z,10.34
2023-02-21T00:20:45.974Z,10.33
2023-02-21T00:23:32.440Z,10.33
2023-02-21T00:26:19.016Z,10.32
2023-02-21T00:29:06.012Z,10.30
2023-02-21T00:31:52.261Z,10.26
2023-02-21T00:34:38.863Z,10.18
2023-02-21T00:37:25.135Z,10.09
2023-02-21T00:40:11.739Z,9.99
2023-02-21T00:42:58.112Z,9.89
2023-02-21T00:45:44.472Z,9.80
2023-02-21T00:48:30.831Z,9.71
2023-02-21T00:51:17.450Z,9.64
2023-02-21T00:54:04.064Z,9.58
2023-02-21T00:56:50.691Z,9.52
2023-02-21T00:59:37.231Z,9.46
2023-02-21T01:02:23.668Z,9.44
2023-02-21T01:05:10.639Z,9.41
2023-02-21T01:07:56.867Z,9.37
2023-02-21T01:10:43.346Z,9.36
2023-02-21T01:13:29.857Z,9.35
2023-02-21T01:16:16.285Z,9.36
2023-02-21T01:19:02.326Z,9.35
2023-02-21T01:21:50.664Z,9.32
2023-02-21T01:24:37.411Z,9.28
2023-02-21T01:27:24.699Z,9.22
2023-02-21T01:30:11.349Z,9.19
2023-02-21T01:32:57.929Z,9.16
2023-02-21T01:35:44.267Z,9.13
2023-02-21T01:38:30.790Z,9.07
2023-02-21T01:41:18.683Z,9.04
2023-02-21T01:44:18.326Z,9.00
2023-02-21T01:47:04.757Z,8.96
2023-02-21T01:49:53.651Z,8.92
2023-02-21T01:52:40.050Z,8.88
2023-02-21T01:55:26.639Z,8.86
2023-02-21T01:58:14.661Z,8.84
2023-02-21T02:01:01.981Z,8.81
2023-02-21T02:03:50.075Z,8.79
2023-02-21T02:06:36.865Z,8.75
2023-02-21T02:09:38.051Z,8.72
2023-02-21T02:12:26.274Z,8.66
2023-02-21T02:15:09.304Z,8.63
2023-02-21T02:17:54.192Z,8.63
2023-02-21T02:20:40.708Z,8.64
2023-02-21T02:23:14.613Z,8.65
2023-02-21T02:25:51.686Z,8.67
2023-02-21T02:28:48.277Z,8.68
2023-02-21T02:32:00.566Z,8.64
2023-02-21T02:35:10.035Z,8.62
2023-02-21T02:38:12.104Z,8.59
2023-02-21T02:40:51.309Z,8.56
2023-02-21T02:43:32.748Z,8.53
2023-02-21T02:46:20.258Z,8.50
2023-02-21T02:49:00.371Z,8.51
2023-02-21T02:51:29.705Z,8.51
2023-02-21T02:53:59.864Z,8.52
2023-02-21T02:56:28.950Z,8.52
2023-02-21T02:59:25.950Z,8.48
2023-02-21T03:02:07.106Z,8.49
2023-02-21T03:04:52.839Z,8.50
2023-02-21T03:07:40.716Z,8.49
2023-02-21T03:10:36.316Z,8.50
2023-02-21T03:13:35.828Z,8.53
2023-02-21T03:16:16.780Z,8.54
2023-02-21T03:18:58.048Z,8.55
2023-02-21T03:21:34.892Z,8.52
2023-02-21T03:24:05.668Z,8.51
2023-02-21T03:26:38.759Z,8.48
2023-02-21T03:29:24.892Z,8.47
2023-02-21T03:32:10.820Z,8.45
2023-02-21T03:34:43.707Z,8.47
2023-02-21T03:37:29.872Z,8.47
2023-02-21T03:39:57.937Z,8.44
2023-02-21T03:42:26.053Z,8.48
2023-02-21T03:44:54.456Z,8.49
2023-02-21T03:47:23.790Z,8.50
2023-02-21T03:49:51.662Z,8.51
2023-02-21T03:52:19.950Z,8.52
2023-02-21T03:54:48.688Z,8.52
2023-02-21T03:57:18.676Z,8.50
2023-02-21T03:59:47.885Z,8.50
2023-02-21T04:02:16.480Z,8.47
2023-02-21T04:04:44.761Z,8.46
2023-02-21T04:07:17.636Z,8.46
2023-02-21T04:09:45.718Z,8.47
2023-02-21T04:12:17.223Z,8.47
2023-02-21T04:14:45.170Z,8.48
2023-02-21T04:17:13.837Z,8.49
2023-02-21T04:19:41.818Z,8.47
2023-02-21T04:22:09.832Z,8.46
2023-02-21T04:24:37.995Z,8.45
2023-02-21T04:27:05.862Z,8.46
2023-02-21T04:29:36.865Z,8.48
2023-02-21T04:32:05.181Z,8.49
2023-02-21T04:34:34.396Z,8.50
2023-02-21T04:37:02.827Z,8.47
2023-02-21T04:39:30.874Z,8.46
2023-02-21T04:41:58.862Z,8.44
2023-02-21T04:44:26.826Z,8.45
2023-02-21T04:46:54.761Z,8.44
2023-02-21T04:49:26.167Z,8.45
2023-02-21T04:51:54.659Z,8.47
2023-02-21T04:54:22.579Z,8.48
2023-02-21T04:56:59.540Z,8.50
2023-02-21T04:59:27.721Z,8.51
2023-02-21T05:01:55.669Z,8.49
2023-02-21T05:04:23.614Z,8.49
2023-02-21T05:06:51.508Z,8.50
2023-02-21T05:09:19.360Z,8.51
2023-02-21T05:11:47.234Z,8.51
2023-02-21T05:14:15.262Z,8.48
2023-02-21T05:16:43.173Z,8.47
2023-02-21T05:19:11.249Z,8.45
2023-02-21T05:21:39.204Z,8.45
2023-02-21T05:24:07.751Z,8.44
2023-02-21T05:26:38.540Z,8.44
2023-02-21T05:29:06.505Z,8.41
2023-02-21T05:31:34.359Z,8.40
2023-02-21T05:34:02.323Z,8.39
2023-02-21T05:36:30.178Z,8.38
2023-02-21T05:38:58.235Z,8.38
2023-02-21T05:41:26.438Z,8.39
2023-02-21T05:43:54.515Z,8.40
2023-02-21T05:46:31.953Z,8.39
2023-02-21T05:49:02.196Z,8.37
2023-02-21T05:51:38.967Z,8.38
2023-02-21T05:54:08.877Z,8.37
2023-02-21T05:56:41.446Z,8.37
2023-02-21T05:59:09.986Z,8.40
2023-02-21T06:01:37.877Z,8.42
2023-02-21T06:04:07.707Z,8.43
2023-02-21T06:06:35.763Z,8.41
2023-02-21T06:09:04.684Z,8.41
2023-02-21T06:11:33.903Z,8.39
2023-02-21T06:14:05.821Z,8.40
2023-02-21T06:16:38.184Z,8.41
2023-02-21T06:19:08.684Z,8.40
2023-02-21T06:21:37.129Z,8.41
2023-02-21T06:24:05.259Z,8.44
2023-02-21T06:26:33.209Z,8.48
2023-02-21T06:29:01.280Z,8.50
2023-02-21T06:31:29.261Z,8.51
2023-02-21T06:33:57.334Z,8.54
2023-02-21T06:36:28.231Z,8.56
2023-02-21T06:38:57.561Z,8.59
2023-02-21T06:41:28.788Z,8.60
2023-02-21T06:43:58.150Z,8.62
2023-02-21T06:46:30.054Z,8.61
2023-02-21T06:48:58.908Z,8.58
2023-02-21T06:51:29.724Z,8.58
2023-02-21T06:53:58.537Z,8.60
2023-02-21T06:56:27.338Z,8.64
2023-02-21T06:58:55.403Z,8.65
2023-02-21T07:01:25.336Z,8.66
2023-02-21T07:03:53.372Z,8.65
2023-02-21T07:06:21.414Z,8.69
2023-02-21T07:08:49.990Z,8.72
2023-02-21T07:11:18.931Z,8.75
2023-02-21T07:13:50.397Z,8.77
2023-02-21T07:16:19.173Z,8.79
2023-02-21T07:18:47.413Z,8.79
2023-02-21T07:21:16.330Z,8.77
2023-02-21T07:23:44.753Z,8.81
2023-02-21T07:26:12.807Z,8.82
2023-02-21T07:28:41.764Z,8.86
2023-02-21T07:31:11.247Z,8.89
2023-02-21T07:33:39.284Z,8.98
2023-02-21T07:36:07.773Z,9.06
2023-02-21T07:38:35.653Z,9.09
2023-02-21T07:41:04.052Z,9.16
2023-02-21T07:43:32.292Z,9.21
2023-02-21T07:46:00.630Z,9.22
2023-02-21T07:48:28.572Z,9.20
2023-02-21T07:50:56.577Z,9.20
2023-02-21T07:53:24.483Z,9.27
2023-02-21T07:55:52.388Z,9.35
2023-02-21T07:58:21.428Z,9.41
2023-02-21T08:00:49.688Z,9.65
2023-02-21T08:03:18.075Z,10.03
2023-02-21T08:05:47.022Z,10.17
2023-02-21T08:08:17.189Z,10.13
2023-02-21T08:10:45.168Z,10.05
2023-02-21T08:13:13.144Z,9.99
2023-02-21T08:15:41.112Z,9.93
2023-02-21T08:18:18.846Z,9.88
2023-02-21T08:20:47.766Z,9.85
2023-02-21T08:23:15.720Z,9.80
2023-02-21T08:25:43.638Z,9.75
2023-02-21T08:28:12.026Z,9.71
2023-02-21T08:30:40.155Z,9.68
2023-02-21T08:33:08.360Z,9.68
2023-02-21T08:35:36.302Z,9.65
2023-02-21T08:38:05.069Z,9.64
2023-02-21T08:40:33.149Z,9.61
2023-02-21T08:43:01.368Z,9.57
2023-02-21T08:45:30.473Z,9.58
2023-02-21T08:47:59.464Z,9.60
2023-02-21T08:50:28.787Z,9.63
2023-02-21T08:52:57.314Z,9.64
2023-02-21T08:55:25.616Z,9.70
2023-02-21T08:57:54.695Z,9.76
2023-02-21T09:00:24.444Z,9.78
2023-02-21T09:02:52.734Z,9.79
2023-02-21T09:05:24.750Z,9.79
2023-02-21T09:07:59.263Z,9.80
2023-02-21T09:10:29.541Z,9.77
2023-02-21T09:12:57.467Z,9.74
2023-02-21T09:15:25.622Z,9.72
2023-02-21T09:17:54.767Z,9.73
2023-02-21T09:20:27.172Z,9.84
2023-02-21T09:22:55.154Z,10.61
2023-02-21T09:25:24.954Z,11.70
2023-02-21T09:27:54.818Z,12.78
2023-02-21T09:30:26.822Z,13.18
2023-02-21T09:32:56.199Z,13.05
2023-02-21T09:35:24.238Z,12.78
2023-02-21T09:37:52.667Z,12.47
2023-02-21T09:40:48.030Z,12.19
2023-02-21T09:43:28.481Z,12.09
2023-02-21T09:46:00.952Z,12.25
2023-02-21T09:48:29.737Z,12.35
2023-02-21T09:51:02.748Z,12.62
2023-02-21T09:53:39.258Z,12.72
2023-02-21T09:56:21.526Z,12.58
2023-02-21T09:58:49.692Z,12.34
2023-02-21T10:01:58.520Z,12.06
2023-02-21T10:04:30.514Z,11.72
2023-02-21T10:07:05.158Z,11.63
2023-02-21T10:09:37.099Z,11.64
2023-02-21T10:12:20.921Z,11.71
2023-02-21T10:15:07.713Z,11.78
2023-02-21T10:18:03.609Z,11.93
2023-02-21T10:21:28.445Z,12.12
2023-02-21T10:24:00.588Z,12.18
2023-02-21T10:26:29.833Z,12.29
2023-02-21T10:28:57.833Z,12.64
2023-02-21T10:31:42.382Z,13.05
2023-02-21T10:34:23.081Z,13.37
2023-02-21T10:36:51.914Z,13.30
2023-02-21T10:39:25.053Z,13.03
2023-02-21T10:41:54.682Z,12.70
2023-02-21T10:44:30.539Z,12.42
2023-02-21T10:47:15.662Z,12.15
2023-02-21T10:49:50.107Z,11.89
2023-02-21T10:52:22.868Z,11.69
2023-02-21T10:55:13.348Z,11.54
2023-02-21T10:57:50.895Z,11.69
2023-02-21T11:00:47.790Z,12.48
2023-02-21T11:03:27.491Z,13.43
2023-02-21T11:05:58.291Z,13.74
2023-02-21T11:08:39.265Z,13.58
2023-02-21T11:11:07.830Z,13.20
2023-02-21T11:13:36.730Z,12.86
2023-02-21T11:16:24.930Z,12.53
2023-02-21T11:19:07.169Z,12.17
2023-02-21T11:21:35.357Z,11.91
2023-02-21T11:24:06.436Z,11.68
2023-02-21T11:26:45.762Z,11.38
2023-02-21T11:29:18.403Z,11.13
2023-02-21T11:31:46.473Z,10.97
2023-02-21T11:34:16.809Z,10.86
2023-02-21T11:36:47.522Z,10.81
2023-02-21T11:39:33.348Z,10.77
2023-02-21T11:42:04.245Z,10.64
2023-02-21T11:44:43.287Z,10.52
2023-02-21T11:47:16.699Z,10.47
2023-02-21T11:49:51.035Z,10.61
2023-02-21T11:52:26.225Z,11.10
2023-02-21T11:54:54.199Z,11.82
2023-02-21T11:57:38.070Z,12.57
2023-02-21T12:00:19.607Z,13.00
2023-02-21T12:03:03.322Z,13.02
2023-02-21T12:05:58.088Z,12.84
2023-02-21T12:08:44.700Z,12.51
2023-02-21T12:11:13.361Z,12.23
2023-02-21T12:14:28.961Z,12.04
2023-02-21T12:17:08.228Z,11.98
2023-02-21T12:20:00.894Z,12.69
2023-02-21T12:22:54.729Z,13.22
2023-02-21T12:25:43.980Z,13.15
2023-02-21T12:28:32.013Z,12.91
2023-02-21T12:31:12.059Z,12.68
2023-02-21T12:34:01.449Z,12.46
2023-02-21T12:36:47.643Z,12.31
2023-02-21T12:39:33.720Z,12.11
2023-02-21T12:42:28.506Z,11.84
2023-02-21T12:45:35.957Z,11.64
2023-02-21T12:48:18.767Z,11.51
2023-02-21T12:50:57.945Z,11.37
2023-02-21T12:53:47.492Z,11.26
2023-02-21T12:56:27.594Z,11.17
2023-02-21T12:59:14.625Z,11.13
2023-02-21T13:02:04.647Z,11.22
2023-02-21T13:04:47.206Z,11.42
2023-02-21T13:07:26.990Z,11.50
2023-02-21T13:10:03.604Z,11.47
2023-02-21T13:12:58.365Z,11.44
2023-02-21T13:15:30.676Z,11.46
2023-02-21T13:18:08.655Z,11.45
2023-02-21T13:20:42.553Z,11.47
2023-02-21T13:23:41.616Z,11.60
2023-02-21T13:26:37.131Z,11.88
2023-02-21T13:29:32.761Z,12.09
2023-02-21T13:32:12.742Z,12.56
2023-02-21T13:34:48.085Z,13.56
2023-02-21T13:37:20.536Z,14.54
2023-02-21T13:39:55.602Z,14.73
2023-02-21T13:42:26.672Z,14.26
2023-02-21T13:45:11.403Z,13.76
2023-02-21T13:48:05.588Z,13.67
2023-02-21T13:50:39.658Z,13.93
2023-02-21T13:53:19.921Z,14.34
2023-02-21T13:56:00.122Z,14.42
2023-02-21T13:58:33.005Z,14.44
2023-02-21T14:01:38.965Z,14.34
2023-02-21T14:04:51.671Z,13.86
2023-02-21T14:07:43.974Z,13.38
2023-02-21T14:10:25.481Z,13.05
2023-02-21T14:13:01.176Z,12.81
2023-02-21T14:15:42.760Z,12.70
2023-02-21T14:18:18.008Z,12.61
2023-02-21T14:20:50.314Z,12.50
2023-02-21T14:23:20.249Z,12.33
2023-02-21T14:26:00.375Z,12.25
2023-02-21T14:28:59.293Z,12.21
2023-02-21T14:31:58.379Z,12.42
2023-02-21T14:34:35.457Z,13.20
2023-02-21T14:37:13.421Z,13.91
2023-02-21T14:39:45.023Z,14.34
2023-02-21T14:42:19.282Z,14.70
2023-02-21T14:45:11.586Z,15.20
2023-02-21T14:48:09.049Z,15.78
2023-02-21T14:50:52.335Z,15.90
2023-02-21T14:53:31.909Z,15.78
2023-02-21T14:56:30.920Z,15.62
2023-02-21T14:59:01.853Z,15.35
2023-02-21T15:01:47.950Z,14.97
2023-02-21T15:04:27.969Z,14.29
2023-02-21T15:07:08.677Z,13.71
2023-02-21T15:09:36.671Z,13.27
2023-02-21T15:12:14.349Z,13.01
2023-02-21T15:14:51.036Z,12.80
2023-02-21T15:17:25.593Z,12.57
2023-02-21T15:20:16.082Z,12.37
2023-02-21T15:22:44.530Z,12.23
2023-02-21T15:25:17.293Z,12.10
2023-02-21T15:27:45.170Z,11.97
2023-02-21T15:30:18.574Z,11.85
2023-02-21T15:33:02.512Z,11.74
2023-02-21T15:35:37.636Z,11.68
2023-02-21T15:38:15.287Z,11.61
2023-02-21T15:40:43.713Z,11.52
2023-02-21T15:43:24.420Z,11.50
2023-02-21T15:45:56.096Z,11.49
2023-02-21T15:48:24.393Z,11.47
2023-02-21T15:50:52.563Z,11.44
2023-02-21T15:53:23.994Z,11.40
2023-02-21T15:55:53.231Z,11.31
2023-02-21T15:58:27.216Z,11.19
2023-02-21T16:01:11.007Z,11.08
2023-02-21T16:03:44.306Z,11.01
2023-02-21T16:06:29.143Z,10.94
2023-02-21T16:09:14.873Z,10.85
2023-02-21T16:11:45.051Z,10.76
2023-02-21T16:14:47.463Z,10.69
2023-02-21T16:17:36.222Z,10.60
2023-02-21T16:20:20.989Z,10.53
2023-02-21T16:23:07.278Z,10.47
2023-02-21T16:25:36.012Z,10.42
2023-02-21T16:28:12.587Z,10.36
2023-02-21T16:30:46.622Z,10.32
2023-02-21T16:33:17.444Z,10.30
2023-02-21T16:35:45.448Z,10.28
2023-02-21T16:38:16.849Z,10.27
2023-02-21T16:40:45.042Z,10.23
2023-02-21T16:43:24.572Z,10.20
2023-02-21T16:45:55.881Z,10.19
2023-02-21T16:48:33.308Z,10.18
2023-02-21T16:51:07.374Z,10.18
2023-02-21T16:53:35.277Z,10.22
2023-02-21T16:56:03.931Z,10.26
2023-02-21T16:58:41.935Z,10.32
2023-02-21T17:01:27.949Z,10.35
2023-02-21T17:03:56.300Z,10.36
2023-02-21T17:06:25.568Z,10.34
2023-02-21T17:08:53.478Z,10.34
2023-02-21T17:11:21.556Z,10.33
2023-02-21T17:13:49.433Z,10.34
2023-02-21T17:16:18.084Z,10.33
2023-02-21T17:18:46.095Z,10.33
2023-02-21T17:21:14.398Z,10.33
2023-02-21T17:23:42.542Z,10.33
2023-02-21T17:26:12.290Z,10.31
2023-02-21T17:28:40.287Z,10.29
2023-02-21T17:31:08.288Z,10.27
2023-02-21T17:33:36.226Z,10.26
2023-02-21T17:36:04.446Z,10.23
2023-02-21T17:38:33.610Z,10.23
2023-02-21T17:41:01.700Z,10.23
2023-02-21T17:43:29.795Z,10.23
2023-02-21T17:45:57.706Z,10.22
2023-02-21T17:48:27.740Z,10.22
2023-02-21T17:50:55.751Z,10.20
2023-02-21T17:53:23.683Z,10.20
2023-02-21T17:55:51.654Z,10.18
2023-02-21T17:58:19.479Z,10.16
2023-02-21T18:00:47.900Z,10.15
2023-02-21T18:03:15.764Z,10.14
2023-02-21T18:05:43.778Z,10.10
2023-02-21T18:08:11.687Z,10.07
2023-02-21T18:10:39.720Z,10.03
2023-02-21T18:13:07.740Z,10.00
2023-02-21T18:15:35.984Z,9.98
2023-02-21T18:18:07.083Z,9.97
2023-02-21T18:20:35.921Z,9.93
2023-02-21T18:23:06.577Z,9.88
2023-02-21T18:25:35.713Z,9.84
2023-02-21T18:28:04.186Z,9.83
2023-02-21T18:30:32.109Z,9.80
2023-02-21T18:33:00.215Z,9.75
2023-02-21T18:35:28.261Z,9.69
2023-02-21T18:37:56.289Z,9.61
2023-02-21T18:40:34.223Z,9.56
2023-02-21T18:43:02.347Z,9.50
2023-02-21T18:45:30.483Z,9.46
2023-02-21T18:48:01.016Z,9.43
2023-02-21T18:50:28.897Z,9.39
2023-02-21T18:52:57.165Z,9.35
2023-02-21T18:55:25.250Z,9.32
2023-02-21T18:57:53.228Z,9.30
2023-02-21T19:00:21.345Z,9.31
2023-02-21T19:02:49.668Z,9.31
2023-02-21T19:05:22.977Z,9.26
2023-02-21T19:07:53.275Z,9.22
2023-02-21T19:10:23.589Z,9.18
2023-02-21T19:12:51.758Z,9.14
2023-02-21T19:15:20.891Z,9.11
2023-02-21T19:17:49.624Z,9.11
2023-02-21T19:20:19.834Z,9.07
2023-02-21T19:22:48.177Z,9.01
2023-02-21T19:25:17.534Z,8.96
2023-02-21T19:27:45.832Z,8.92
2023-02-21T19:30:14.575Z,8.92
2023-02-21T19:32:42.417Z,8.96
2023-02-21T19:35:10.313Z,8.98
2023-02-21T19:37:39.175Z,9.00
2023-02-21T19:40:08.167Z,9.02
2023-02-21T19:42:36.146Z,9.03
2023-02-21T19:45:04.423Z,9.02
2023-02-21T19:47:32.334Z,8.97
2023-02-21T19:50:00.566Z,8.93
2023-02-21T19:52:29.106Z,8.90
2023-02-21T19:54:57.060Z,8.88
2023-02-21T19:57:24.989Z,8.85
2023-02-21T19:59:52.874Z,8.80
2023-02-21T20:02:20.952Z,8.73
2023-02-21T20:04:49.644Z,8.66
2023-02-21T20:07:17.985Z,8.61
2023-02-21T20:09:48.104Z,8.58
2023-02-21T20:12:18.113Z,8.53
2023-02-21T20:14:48.707Z,8.50
2023-02-21T20:17:18.009Z,8.46
2023-02-21T20:19:46.080Z,8.45
2023-02-21T20:22:14.150Z,8.46
2023-02-21T20:24:47.821Z,8.48
2023-02-21T20:27:16.224Z,8.50
2023-02-21T20:29:44.123Z,8.51
2023-02-21T20:32:12.085Z,8.52
2023-02-21T20:34:40.236Z,8.50
2023-02-21T20:37:11.147Z,8.47
2023-02-21T20:39:39.062Z,8.45
2023-02-21T20:42:07.957Z,8.47
2023-02-21T20:44:38.385Z,8.49
2023-02-21T20:47:07.090Z,8.50
2023-02-21T20:49:35.339Z,8.51
2023-02-21T20:52:04.501Z,8.49
2023-02-21T20:54:32.381Z,8.44
2023-02-21T20:57:00.424Z,8.44
2023-02-21T20:59:35.397Z,8.41
2023-02-21T21:02:04.261Z,8.37
2023-02-21T21:04:42.936Z,8.33
2023-02-21T21:07:15.445Z,8.29
2023-02-21T21:09:44.560Z,8.26
2023-02-21T21:12:15.285Z,8.22
2023-02-21T21:14:45.246Z,8.18
2023-02-21T21:17:18.678Z,8.14
2023-02-21T21:19:49.107Z,8.11
2023-02-21T21:22:18.616Z,8.08
2023-02-21T21:24:46.767Z,8.05
2023-02-21T21:27:15.602Z,8.02
2023-02-21T21:29:44.272Z,7.99
2023-02-21T21:32:17.905Z,7.96
2023-02-21T21:34:47.755Z,7.94
2023-02-21T21:37:18.518Z,7.92
2023-02-21T21:39:54.518Z,7.89
2023-02-21T21:42:27.903Z,7.86
2023-02-21T21:44:57.118Z,7.79
2023-02-21T21:47:27.842Z,7.78
2023-02-21T21:49:55.800Z,7.74
2023-02-21T21:52:26.608Z,7.73
2023-02-21T21:54:54.494Z,7.70
2023-02-21T21:57:22.917Z,7.70
2023-02-21T21:59:50.822Z,7.67
2023-02-21T22:02:19.710Z,7.65
2023-02-21T22:04:48.329Z,7.64
2023-02-21T22:07:17.579Z,7.63
2023-02-21T22:09:45.509Z,7.63
2023-02-21T22:12:17.800Z,7.60
2023-02-21T22:14:45.728Z,7.58
2023-02-21T22:17:13.635Z,7.59
2023-02-21T22:19:41.551Z,7.60
2023-02-21T22:22:09.473Z,7.61
2023-02-21T22:24:40.630Z,7.62
2023-02-21T22:27:09.496Z,7.63
2023-02-21T22:29:37.306Z,7.66
2023-02-21T22:32:07.387Z,7.67
2023-02-21T22:34:35.427Z,7.67
2023-02-21T22:37:04.089Z,7.67
2023-02-21T22:39:32.142Z,7.68
2023-02-21T22:41:59.979Z,7.69
2023-02-21T22:44:27.805Z,7.71
2023-02-21T22:46:59.422Z,7.71
2023-02-21T22:49:27.991Z,7.72
2023-02-21T22:51:57.779Z,7.72
2023-02-21T22:54:26.330Z,7.71
2023-02-21T22:57:00.350Z,7.73
2023-02-21T22:59:28.248Z,7.73
2023-02-21T23:01:58.638Z,7.72
2023-02-21T23:04:27.037Z,7.71
2023-02-21T23:06:57.928Z,7.72
2023-02-21T23:09:29.286Z,7.72
2023-02-21T23:12:00.014Z,7.71
2023-02-21T23:14:31.669Z,7.69
2023-02-21T23:16:59.925Z,7.67
2023-02-21T23:19:29.497Z,7.62
2023-02-21T23:21:57.985Z,7.58
2023-02-21T23:24:28.180Z,7.54
2023-02-21T23:26:56.213Z,7.48
2023-02-21T23:29:25.949Z,7.44
2023-02-21T23:31:58.351Z,7.39
2023-02-21T23:34:40.354Z,7.35
2023-02-21T23:37:12.411Z,7.30
2023-02-21T23:39:41.844Z,7.26
2023-02-21T23:42:11.096Z,7.24
2023-02-21T23:44:39.317Z,7.23
2023-02-21T23:47:07.193Z,7.22
2023-02-21T23:49:35.089Z,7.22
2023-02-21T23:52:03.021Z,7.22
2023-02-21T23:54:31.250Z,7.22
2023-02-21T23:57:00.726Z,7.23
2023-02-21T23:59:29.187Z,7.24
